Time;durP1;ratioP1;P1;durP2;ratioP2;P2;SDS_P1;SDS_P2;PMS_P1;PMS_P2;Temp;Humidity;BMP_temperature;BMP_pressure;BME280_temperature;BME280_humidity;BME280_pressure;Samples;Min_cycle;Max_cycle;Signal;HPM_P1;HPM_P2
2021/09/13 00:01:40;;;;;;;8.85;6.50;;;;;;;20.14;37.13;99296.56;5073511;28;20009;-82
2021/09/13 00:04:06;;;;;;;8.25;6.22;;;;;;;19.81;37.17;99235.78;5073759;28;20077;-82
2021/09/13 00:06:31;;;;;;;7.53;6.47;;;;;;;20.19;37.07;99296.66;5073704;28;20481;-81
2021/09/13 00:08:57;;;;;;;7.57;6.78;;;;;;;20.24;37.02;99296.72;5073663;28;20020;-82
2021/09/13 00:11:22;;;;;;;8.88;6.03;;;;;;;19.88;37.07;99238.28;5073670;28;20023;-81
2021/09/13 00:13:47;;;;;;;9.55;6.65;;;;;;;20.22;36.98;99287.31;5072335;28;20177;-82
2021/09/13 00:16:13;;;;;;;8.00;6.50;;;;;;;20.17;37.16;99274.63;5073335;28;20106;-82
2021/09/13 00:18:38;;;;;;;10.00;6.30;;;;;;;19.79;37.26;99221.00;5073453;28;20033;-82
2021/09/13 00:21:04;;;;;;;8.32;6.15;;;;;;;19.76;37.05;99224.97;5073383;28;20032;-81
2021/09/13 00:23:29;;;;;;;8.13;6.57;;;;;;;20.13;37.25;99286.09;5071942;28;20485;-77
2021/09/13 00:25:55;;;;;;;10.30;6.90;;;;;;;19.09;37.15;99128.56;5073102;28;20050;-76
2021/09/13 00:28:20;;;;;;;7.03;6.32;;;;;;;20.04;37.23;99272.28;5073461;28;20009;-76
2021/09/13 00:30:45;;;;;;;7.63;6.40;;;;;;;19.87;37.48;99266.13;5073408;28;20401;-76
2021/09/13 00:33:11;;;;;;;9.20;6.45;;;;;;;20.07;37.29;99285.22;5073322;28;20028;-75
2021/09/13 00:35:36;;;;;;;11.23;7.05;;;;;;;20.08;37.40;99302.09;5073063;28;20114;-76
2021/09/13 00:38:02;;;;;;;7.90;6.60;;;;;;;19.75;37.37;99236.75;5072994;28;20021;-75
2021/09/13 00:40:27;;;;;;;8.63;6.28;;;;;;;20.01;37.39;99272.78;5072909;28;20017;-75
2021/09/13 00:42:53;;;;;;;8.32;6.30;;;;;;;19.96;37.45;99261.97;5072953;28;20447;-76
2021/09/13 00:45:18;;;;;;;7.88;7.07;;;;;;;19.78;37.53;99238.13;5072841;28;20095;-75
2021/09/13 00:47:43;;;;;;;9.00;6.60;;;;;;;19.84;37.40;99263.94;5072822;28;20017;-76
2021/09/13 00:50:10;;;;;;;9.95;6.70;;;;;;;20.04;37.68;99282.19;5072647;28;20046;-75
2021/09/13 00:52:36;;;;;;;10.48;6.97;;;;;;;20.02;37.71;99309.22;5072376;28;20108;-76
2021/09/13 00:55:02;;;;;;;8.98;6.68;;;;;;;19.83;37.53;99279.19;5072497;28;20592;-76
2021/09/13 00:57:28;;;;;;;6.60;6.00;;;;;;;19.64;37.48;99241.13;5072621;28;20021;-75
2021/09/13 00:59:53;;;;;;;11.07;6.78;;;;;;;19.78;37.63;99262.25;5072701;28;20032;-76
2021/09/13 01:02:19;;;;;;;8.98;6.22;;;;;;;19.95;37.68;99289.81;5072421;28;20029;-76
2021/09/13 01:04:45;;;;;;;10.52;6.97;;;;;;;19.43;37.69;99203.53;5071288;28;20031;-75
2021/09/13 01:07:11;;;;;;;7.95;6.22;;;;;;;19.57;37.89;99237.00;5072393;28;20021;-76
2021/09/13 01:09:37;;;;;;;9.80;6.70;;;;;;;19.85;37.90;99277.09;5072542;28;20028;-75
2021/09/13 01:12:03;;;;;;;10.07;6.65;;;;;;;19.93;37.76;99283.91;5072458;28;20455;-75
2021/09/13 01:14:39;;;;;;;9.38;6.53;;;;;;;19.78;37.94;99262.25;5072312;28;20131;-76
2021/09/13 01:17:06;;;;;;;8.70;6.10;;;;;;;19.35;37.86;99189.50;5072015;28;20116;-76
2021/09/13 01:19:32;;;;;;;8.82;6.65;;;;;;;19.95;37.87;99293.31;5072143;28;20082;-75
2021/09/13 01:22:02;;;;;;;11.52;6.25;;;;;;;19.91;38.00;99283.34;5072084;28;20024;-76
2021/09/13 01:24:29;;;;;;;9.17;6.40;;;;;;;19.80;38.08;99263.63;5072266;28;20055;-77
2021/09/13 01:27:05;;;;;;;9.55;6.80;;;;;;;20.02;37.90;99286.97;5071960;28;20059;-76
2021/09/13 01:29:31;;;;;;;9.57;6.40;;;;;;;19.91;37.97;99289.50;5072006;28;20107;-77
2021/09/13 01:31:57;;;;;;;10.57;6.93;;;;;;;19.97;37.98;99285.84;5071937;28;20095;-76
2021/09/13 01:34:23;;;;;;;7.72;6.93;;;;;;;19.98;37.85;99292.03;5071801;28;20413;-76
2021/09/13 01:36:49;;;;;;;10.90;6.72;;;;;;;19.97;37.92;99296.56;5071221;28;20025;-75
2021/09/13 01:39:14;;;;;;;7.88;6.43;;;;;;;19.90;38.00;99279.03;5071862;28;20024;-77
2021/09/13 01:41:39;;;;;;;7.90;6.10;;;;;;;19.59;38.10;99222.31;5071960;28;20083;-74
2021/09/13 01:44:05;;;;;;;12.00;7.35;;;;;;;20.03;37.92;99293.97;5071642;28;20630;-76
2021/09/13 01:46:31;;;;;;;8.98;6.88;;;;;;;19.93;38.06;99279.34;5071632;28;20107;-75
2021/09/13 01:48:56;;;;;;;7.95;6.88;;;;;;;20.00;38.04;99282.69;5070241;28;20108;-75
2021/09/13 01:51:21;;;;;;;9.75;7.25;;;;;;;19.66;38.06;99241.72;5070402;28;20500;-75
2021/09/13 01:53:47;;;;;;;8.25;6.07;;;;;;;20.12;38.01;99301.38;5070292;28;20081;-74
2021/09/13 01:56:13;;;;;;;12.40;7.25;;;;;;;20.16;37.90;99299.81;5071498;28;20032;-75
2021/09/13 01:58:39;;;;;;;14.20;7.10;;;;;;;19.74;38.04;99239.69;5071594;28;20146;-76
2021/09/13 02:01:05;;;;;;;8.40;6.82;;;;;;;19.92;38.06;99258.16;5071615;28;20058;-75
2021/09/13 02:03:30;;;;;;;9.98;7.30;;;;;;;20.19;38.07;99290.47;5071529;28;20100;-76
2021/09/13 02:05:55;;;;;;;14.63;6.97;;;;;;;19.85;37.97;99258.34;5071462;28;20178;-74
2021/09/13 02:08:21;;;;;;;7.85;6.32;;;;;;;19.98;38.10;99257.19;5071299;28;20032;-76
2021/09/13 02:10:46;;;;;;;16.40;7.07;;;;;;;19.64;38.07;99217.03;5070224;28;20517;-75
2021/09/13 02:13:12;;;;;;;10.60;6.68;;;;;;;19.94;38.00;99272.13;5071552;28;20025;-75
2021/09/13 02:15:37;;;;;;;10.65;7.55;;;;;;;19.89;38.22;99259.47;5071490;28;20028;-75
2021/09/13 02:18:03;;;;;;;16.90;8.05;;;;;;;20.03;38.16;99294.78;5071061;28;20055;-75
2021/09/13 02:20:28;;;;;;;9.95;6.70;;;;;;;19.60;38.10;99217.78;5071418;28;20025;-76
2021/09/13 02:22:53;;;;;;;9.48;7.38;;;;;;;20.02;38.23;99289.66;5071509;28;20501;-75
2021/09/13 02:25:19;;;;;;;9.73;6.70;;;;;;;19.87;38.25;99264.25;5071200;28;20017;-75
2021/09/13 02:27:44;;;;;;;8.45;6.88;;;;;;;20.00;38.20;99279.19;5071275;28;20082;-76
2021/09/13 02:30:10;;;;;;;10.77;6.72;;;;;;;20.01;38.26;99283.50;5071288;28;20472;-75
2021/09/13 02:32:35;;;;;;;9.30;7.25;;;;;;;20.00;38.32;99289.91;5071168;28;20025;-76
2021/09/13 02:35:04;;;;;;;9.05;7.20;;;;;;;19.75;38.40;99254.69;5071324;28;20078;-76
2021/09/13 02:37:34;;;;;;;9.13;6.68;;;;;;;19.97;38.31;99287.72;5071504;28;20104;-75
2021/09/13 02:40:01;;;;;;;13.15;7.13;;;;;;;19.41;38.46;99209.16;5069972;28;20453;-75
2021/09/13 02:42:27;;;;;;;9.73;6.80;;;;;;;19.94;38.43;99282.84;5069912;28;20025;-75
2021/09/13 02:44:53;;;;;;;9.65;7.10;;;;;;;19.29;38.52;99187.78;5071281;28;20429;-76
2021/09/13 02:47:18;;;;;;;9.10;6.47;;;;;;;19.78;38.55;99260.38;5071175;28;20023;-74
2021/09/13 02:49:44;;;;;;;8.95;6.65;;;;;;;19.93;38.56;99286.59;5075143;28;20046;-76
2021/09/13 02:52:09;;;;;;;10.38;6.90;;;;;;;19.49;38.69;99216.78;5074937;28;20024;-75
2021/09/13 02:54:35;;;;;;;10.90;7.13;;;;;;;19.90;38.55;99293.25;5075157;28;20024;-76
2021/09/13 02:57:00;;;;;;;9.95;6.95;;;;;;;19.50;38.61;99222.94;5075186;28;20028;-75
2021/09/13 02:59:25;;;;;;;10.73;7.07;;;;;;;19.33;38.62;99202.34;5074973;28;20035;-76
2021/09/13 03:01:51;;;;;;;9.95;7.43;;;;;;;19.72;38.69;99265.91;5074806;28;20082;-76
2021/09/13 03:04:16;;;;;;;10.90;7.20;;;;;;;19.48;38.97;99233.09;5074702;28;20378;-75
2021/09/13 03:06:42;;;;;;;9.10;7.03;;;;;;;19.45;38.95;99234.38;5074838;28;20016;-75
2021/09/13 03:09:07;;;;;;;10.23;7.47;;;;;;;19.65;38.98;99261.50;5074759;28;20107;-76
2021/09/13 03:11:32;;;;;;;8.18;7.22;;;;;;;19.73;38.81;99270.19;5074657;28;20035;-75
2021/09/13 03:13:58;;;;;;;10.98;7.63;;;;;;;19.61;38.90;99252.34;5074487;28;20025;-75
2021/09/13 03:16:24;;;;;;;8.07;6.90;;;;;;;19.85;38.72;99287.81;5072994;28;20048;-77
2021/09/13 03:18:49;;;;;;;7.40;6.55;;;;;;;19.47;38.78;99228.78;5074475;28;20024;-76
2021/09/13 03:21:15;;;;;;;10.13;7.28;;;;;;;19.76;38.97;99277.75;5074649;28;20497;-76
2021/09/13 03:23:41;;;;;;;10.52;7.05;;;;;;;19.53;38.91;99243.91;5074720;28;20103;-80
2021/09/13 03:26:07;;;;;;;9.77;7.00;;;;;;;19.72;38.82;99265.91;5074788;28;20535;-81
2021/09/13 03:28:34;;;;;;;10.30;6.90;;;;;;;19.91;38.90;99291.38;5074552;28;20107;-81
2021/09/13 03:31:00;;;;;;;9.07;6.35;;;;;;;19.43;38.60;99225.78;5072855;28;20028;-80
2021/09/13 03:33:26;;;;;;;9.25;7.05;;;;;;;19.70;38.58;99259.97;5074398;28;20029;-80
2021/09/13 03:35:51;;;;;;;11.15;6.90;;;;;;;19.75;38.84;99254.69;5074056;28;20086;-81
2021/09/13 03:38:16;;;;;;;8.68;7.38;;;;;;;19.68;38.66;99254.84;5074047;28;20039;-81
2021/09/13 03:40:42;;;;;;;11.45;6.90;;;;;;;19.97;38.59;99285.03;5074263;28;20081;-80
2021/09/13 03:43:07;;;;;;;11.18;6.78;;;;;;;20.04;38.65;99292.91;5074236;28;20048;-80
2021/09/13 03:45:33;;;;;;;10.38;7.60;;;;;;;20.07;38.53;99298.63;5073979;28;20049;-80
2021/09/13 03:47:58;;;;;;;12.98;7.18;;;;;;;20.02;38.50;99314.59;5074420;28;20554;-80
2021/09/13 03:50:23;;;;;;;11.02;6.65;;;;;;;19.59;38.38;99218.81;5072781;28;20019;-80
2021/09/13 03:52:49;;;;;;;11.13;7.53;;;;;;;20.06;38.49;99290.78;5073881;28;20020;-80
2021/09/13 03:55:14;;;;;;;9.18;7.50;;;;;;;19.86;38.36;99251.09;5072475;28;20016;-80
2021/09/13 03:57:40;;;;;;;11.25;7.35;;;;;;;20.24;38.39;99320.84;5073785;28;20048;-80
2021/09/13 04:00:06;;;;;;;9.27;7.03;;;;;;;19.77;38.34;99244.53;5071764;28;20434;-81
2021/09/13 04:02:31;;;;;;;9.60;7.38;;;;;;;20.31;38.29;99321.47;5073872;28;20028;-81
2021/09/13 04:04:56;;;;;;;9.30;7.45;;;;;;;20.07;38.23;99273.69;5073863;28;20409;-81
2021/09/13 04:07:26;;;;;;;10.35;7.40;;;;;;;19.95;38.35;99255.00;5073413;28;20043;-81
2021/09/13 04:10:14;;;;;;;10.35;7.65;;;;;;;20.39;38.31;99319.44;5073882;28;20082;-81
2021/09/13 04:12:39;;;;;;;13.80;7.97;;;;;;;20.27;38.39;99315.00;5073603;28;20024;-81
2021/09/13 04:15:05;;;;;;;15.15;7.63;;;;;;;20.28;38.36;99297.84;5072381;28;20630;-81
2021/09/13 04:17:31;;;;;;;10.57;7.53;;;;;;;20.12;38.39;99263.84;5073557;28;20044;-80
2021/09/13 04:19:56;;;;;;;16.63;7.95;;;;;;;20.15;38.53;99270.59;5073389;28;20044;-80
2021/09/13 04:22:22;;;;;;;13.80;8.35;;;;;;;20.40;38.31;99297.78;5073429;28;20035;-80
2021/09/13 04:24:48;;;;;;;12.70;7.32;;;;;;;20.61;38.31;99328.34;5073520;28;20032;-75
2021/09/13 04:27:13;;;;;;;16.17;7.88;;;;;;;20.68;38.01;99330.84;5073305;28;20103;-74
2021/09/13 04:29:38;;;;;;;16.67;8.38;;;;;;;20.72;37.93;99332.78;5073316;28;20020;-74
2021/09/13 04:32:04;;;;;;;13.65;7.60;;;;;;;20.42;37.61;99276.06;5072955;28;20409;-74
2021/09/13 04:34:29;;;;;;;9.73;7.20;;;;;;;20.58;37.53;99302.84;5072948;28;20099;-75
2021/09/13 04:36:55;;;;;;;13.18;8.00;;;;;;;20.90;37.68;99337.06;5073039;28;20031;-74
2021/09/13 04:39:20;;;;;;;13.68;7.85;;;;;;;20.94;37.43;99340.88;5072931;28;20408;-76
2021/09/13 04:41:46;;;;;;;13.70;7.72;;;;;;;20.87;37.36;99324.94;5072804;28;20021;-75
2021/09/13 04:44:11;;;;;;;14.23;8.20;;;;;;;20.69;37.38;99279.63;5072995;28;20476;-75
2021/09/13 04:46:36;;;;;;;15.25;8.95;;;;;;;20.91;37.40;99327.94;5072850;28;20017;-75
2021/09/13 04:49:02;;;;;;;12.35;8.18;;;;;;;20.92;37.25;99329.56;5072904;28;20016;-74
2021/09/13 04:51:27;;;;;;;14.13;8.27;;;;;;;21.08;37.36;99350.16;5072757;28;20024;-75
2021/09/13 04:53:53;;;;;;;11.93;8.77;;;;;;;21.04;37.24;99345.53;5072578;28;20489;-74
2021/09/13 04:56:18;;;;;;;15.05;8.20;;;;;;;20.77;37.28;99310.56;5072454;28;20382;-75
2021/09/13 04:58:44;;;;;;;9.65;7.45;;;;;;;20.74;37.45;99295.78;5072380;28;20020;-75
2021/09/13 05:01:09;;;;;;;11.80;8.70;;;;;;;20.99;37.47;99345.47;5072545;28;20024;-74
2021/09/13 05:03:35;;;;;;;12.18;7.88;;;;;;;20.88;37.49;99331.94;5071322;28;20031;-74
2021/09/13 05:06:02;;;;;;;13.00;8.20;;;;;;;20.78;37.55;99321.06;5072471;28;20054;-75
2021/09/13 05:08:28;;;;;;;9.88;7.35;;;;;;;20.75;37.92;99315.38;5072447;28;20044;-74
2021/09/13 05:10:53;;;;;;;9.75;8.20;;;;;;;21.11;38.03;99373.00;5072281;28;20017;-74
2021/09/13 05:13:18;;;;;;;11.98;7.88;;;;;;;21.05;37.86;99372.13;5071956;28;20021;-76
2021/09/13 05:15:44;;;;;;;8.93;7.38;;;;;;;20.99;38.06;99369.63;5071937;28;20023;-74
2021/09/13 05:18:09;;;;;;;10.13;7.15;;;;;;;21.03;37.89;99382.31;5056599;28;20420;-75
2021/09/13 05:20:35;;;;;;;8.50;7.22;;;;;;;20.53;37.97;99332.28;5052296;28;20509;-75
2021/09/13 05:23:00;;;;;;;14.00;6.78;;;;;;;20.75;37.87;99353.75;5052232;28;20027;-74
2021/09/13 05:25:25;;;;;;;15.38;8.48;;;;;;;20.71;37.83;99343.75;5051827;28;20516;-74
2021/09/13 05:27:51;;;;;;;12.75;8.30;;;;;;;20.63;37.94;99327.03;5051923;28;20416;-75
2021/09/13 05:30:16;;;;;;;11.77;7.80;;;;;;;20.48;37.88;99297.34;5052849;28;20036;-74
2021/09/13 05:32:42;;;;;;;15.57;8.45;;;;;;;20.97;37.90;99372.56;5070089;28;20044;-75
2021/09/13 05:35:08;;;;;;;15.85;8.23;;;;;;;20.67;38.00;99323.84;5071827;28;20027;-74
2021/09/13 05:37:33;;;;;;;14.30;9.23;;;;;;;20.88;37.96;99349.91;5071649;28;20039;-75
2021/09/13 05:39:58;;;;;;;11.43;8.18;;;;;;;20.83;37.77;99341.81;5071327;28;20032;-74
2021/09/13 05:42:24;;;;;;;11.05;7.90;;;;;;;21.21;37.77;99390.03;5068123;28;20021;-74
2021/09/13 05:44:49;;;;;;;13.60;7.82;;;;;;;20.98;37.79;99354.59;5061267;28;20056;-75
2021/09/13 05:47:15;;;;;;;16.40;11.93;;;;;;;21.19;38.02;99372.56;5072437;28;20016;-75
2021/09/13 05:49:40;;;;;;;15.52;8.82;;;;;;;21.41;37.82;99397.53;5082722;28;20064;-74
2021/09/13 05:52:06;;;;;;;11.27;8.63;;;;;;;21.38;37.79;99384.63;5071748;28;20077;-74
2021/09/13 05:54:31;;;;;;;13.13;8.85;;;;;;;21.08;37.56;99341.28;5071392;28;20020;-74
2021/09/13 05:56:57;;;;;;;11.15;8.65;;;;;;;21.55;37.71;99400.63;5071387;28;20017;-73
2021/09/13 05:59:24;;;;;;;11.43;8.68;;;;;;;21.23;37.51;99336.94;5064568;28;20036;-76
2021/09/13 06:01:50;;;;;;;9.70;8.07;;;;;;;21.61;37.86;99414.97;5071619;28;20390;-76
2021/09/13 06:04:17;;;;;;;13.10;8.55;;;;;;;21.63;37.72;99408.28;5069624;28;20024;-76
2021/09/13 06:06:42;;;;;;;10.48;8.00;;;;;;;21.65;37.59;99403.47;5071308;28;20166;-74
2021/09/13 06:09:09;;;;;;;12.95;7.97;;;;;;;21.69;37.15;99422.56;5071241;28;20462;-75
2021/09/13 06:11:35;;;;;;;13.25;8.90;;;;;;;21.45;37.42;99368.31;5070619;28;20081;-76
2021/09/13 06:14:00;;;;;;;11.68;8.48;;;;;;;21.35;37.32;99344.84;5069174;28;20024;-77
2021/09/13 06:16:26;;;;;;;12.27;8.40;;;;;;;21.86;37.22;99416.03;5064550;28;20037;-75
2021/09/13 06:18:51;;;;;;;13.85;8.45;;;;;;;21.45;37.25;99369.13;5069661;28;20024;-75
2021/09/13 06:21:18;;;;;;;10.15;8.40;;;;;;;21.77;37.19;99439.06;5065786;28;20025;-76
2021/09/13 06:23:44;;;;;;;11.55;7.63;;;;;;;21.82;37.50;99424.84;5063900;28;20039;-76
2021/09/13 06:26:10;;;;;;;10.05;8.02;;;;;;;21.60;37.22;99373.03;5059864;28;20029;-76
2021/09/13 06:28:36;;;;;;;11.50;8.73;;;;;;;21.53;37.03;99368.66;5070971;28;20074;-73
2021/09/13 06:31:01;;;;;;;15.55;9.68;;;;;;;21.94;37.13;99422.81;5069627;28;20108;-74
2021/09/13 06:33:28;;;;;;;15.50;11.82;;;;;;;21.87;37.12;99404.22;5053689;28;20479;-73
2021/09/13 06:35:53;;;;;;;15.65;10.85;;;;;;;22.07;37.11;99430.50;5068943;28;20032;-76
2021/09/13 06:38:18;;;;;;;13.75;9.48;;;;;;;22.14;36.76;99423.03;5066153;28;20020;-73
2021/09/13 06:40:44;;;;;;;10.88;8.20;;;;;;;21.96;37.03;99401.06;5065100;28;20020;-75
2021/09/13 06:43:13;;;;;;;12.82;8.90;;;;;;;22.22;36.87;99429.00;5067568;28;20559;-75
2021/09/13 06:45:44;;;;;;;13.13;9.88;;;;;;;22.27;36.90;99429.84;5062939;28;20055;-75
2021/09/13 06:48:10;;;;;;;15.90;9.27;;;;;;;21.89;36.86;99366.31;5068350;28;20032;-75
2021/09/13 06:50:38;;;;;;;14.82;8.30;;;;;;;22.40;36.71;99436.69;5067368;28;20027;-74
2021/09/13 06:53:04;;;;;;;10.88;8.77;;;;;;;22.26;36.61;99405.91;5068463;28;20029;-73
2021/09/13 06:55:30;;;;;;;10.73;8.50;;;;;;;22.37;36.46;99391.47;5066318;28;20056;-75
2021/09/13 06:57:56;;;;;;;10.73;8.02;;;;;;;22.54;36.30;99407.47;5067357;28;20074;-76
2021/09/13 07:00:22;;;;;;;12.57;8.23;;;;;;;22.75;36.26;99422.66;5069130;28;20029;-75
2021/09/13 07:02:49;;;;;;;11.52;8.07;;;;;;;22.46;35.84;99357.66;5065978;28;20086;-76
2021/09/13 07:05:15;;;;;;;13.27;9.20;;;;;;;22.61;35.70;99379.25;5061949;28;20013;-75
2021/09/13 07:07:41;;;;;;;9.02;7.80;;;;;;;22.77;35.62;99399.81;5067989;28;20032;-75
2021/09/13 07:10:08;;;;;;;10.45;8.65;;;;;;;23.13;35.45;99437.72;5062277;28;20031;-75
2021/09/13 07:12:35;;;;;;;11.27;8.45;;;;;;;23.14;35.25;99429.38;5057493;28;20029;-74
2021/09/13 07:15:02;;;;;;;14.77;9.82;;;;;;;23.05;35.19;99405.91;5056175;28;20036;-75
2021/09/13 07:17:27;;;;;;;14.73;9.50;;;;;;;23.05;35.08;99392.44;5059306;28;20033;-75
2021/09/13 07:19:53;;;;;;;11.63;8.73;;;;;;;23.26;34.82;99423.78;5064690;28;20036;-75
2021/09/13 07:22:19;;;;;;;11.50;9.10;;;;;;;23.37;34.65;99441.59;5063695;28;20028;-74
2021/09/13 07:24:45;;;;;;;9.73;8.30;;;;;;;23.37;34.74;99435.41;5057786;28;20029;-76
2021/09/13 07:27:11;;;;;;;17.58;12.48;;;;;;;23.13;34.82;99389.25;5065843;28;20409;-76
2021/09/13 07:29:37;;;;;;;13.20;9.85;;;;;;;23.49;34.84;99435.97;5069271;28;20517;-75
2021/09/13 07:32:03;;;;;;;13.23;8.98;;;;;;;23.11;34.84;99369.84;5056205;28;20028;-75
2021/09/13 07:34:29;;;;;;;10.80;9.07;;;;;;;23.23;34.91;99367.72;5070272;28;20029;-76
2021/09/13 07:36:56;;;;;;;13.35;11.30;;;;;;;23.66;34.85;99431.19;5055288;28;20075;-80
2021/09/13 07:39:23;;;;;;;14.45;10.80;;;;;;;23.78;34.75;99449.81;5057110;28;20048;-79
2021/09/13 07:41:48;;;;;;;13.50;10.13;;;;;;;23.83;34.52;99447.16;5073754;28;20513;-81
2021/09/13 07:44:14;;;;;;;11.80;9.07;;;;;;;23.61;34.41;99417.72;5073532;28;20033;-80
2021/09/13 07:46:39;;;;;;;11.30;9.57;;;;;;;23.46;34.14;99382.59;5072676;28;20013;-78
2021/09/13 07:49:04;;;;;;;12.50;9.90;;;;;;;23.64;33.97;99400.19;5073501;28;20100;-80
2021/09/13 07:51:30;;;;;;;12.07;9.40;;;;;;;23.95;34.09;99444.22;5073456;28;20023;-82
2021/09/13 07:53:55;;;;;;;12.70;9.85;;;;;;;23.72;34.19;99394.28;5071287;28;20028;-81
2021/09/13 07:56:20;;;;;;;12.48;9.98;;;;;;;23.69;34.50;99394.81;5073155;28;20550;-78
2021/09/13 07:58:46;;;;;;;10.68;9.52;;;;;;;24.17;33.88;99449.34;5073302;28;20016;-80
2021/09/13 08:01:11;;;;;;;12.63;9.40;;;;;;;24.27;33.87;99450.19;5072181;28;20451;-82
2021/09/13 08:03:37;;;;;;;14.40;9.13;;;;;;;23.90;33.40;99391.09;5073155;28;20017;-81
2021/09/13 08:06:02;;;;;;;15.88;9.55;;;;;;;24.00;33.27;99395.69;5072893;28;20036;-80
2021/09/13 08:08:28;;;;;;;14.20;9.93;;;;;;;24.12;33.06;99395.41;5072200;28;20040;-80
2021/09/13 08:10:53;;;;;;;14.27;9.45;;;;;;;24.18;32.67;99407.81;5073079;28;20385;-81
2021/09/13 08:13:18;;;;;;;12.20;9.13;;;;;;;24.28;32.79;99397.03;5071749;28;20020;-80
2021/09/13 08:15:44;;;;;;;13.95;9.05;;;;;;;24.37;32.84;99408.91;5066033;28;20025;-79
2021/09/13 08:18:09;;;;;;;11.13;9.15;;;;;;;24.80;32.51;99452.59;5052795;28;20029;-81
2021/09/13 08:20:35;;;;;;;10.93;9.48;;;;;;;24.41;32.40;99374.91;5057801;28;20117;-81
2021/09/13 08:23:01;;;;;;;11.43;8.77;;;;;;;24.75;32.53;99409.41;5071951;28;20086;-80
2021/09/13 08:25:27;;;;;;;14.45;9.13;;;;;;;24.39;32.04;99350.06;5073103;28;20036;-76
2021/09/13 08:27:52;;;;;;;13.13;9.63;;;;;;;25.19;32.31;99455.47;5072229;28;20024;-76
2021/09/13 08:30:18;;;;;;;18.35;16.00;;;;;;;24.81;32.05;99376.72;5071281;28;20032;-82
2021/09/13 08:32:43;;;;;;;14.95;10.27;;;;;;;25.02;31.49;99404.47;5072438;28;20078;-80
2021/09/13 08:35:09;;;;;;;15.40;11.27;;;;;;;25.24;31.30;99410.34;5071990;28;20025;-80
2021/09/13 08:37:34;;;;;;;12.80;10.73;;;;;;;25.26;31.33;99408.16;5071453;28;20059;-81
2021/09/13 08:39:59;;;;;;;16.35;9.05;;;;;;;25.55;31.05;99421.00;5072813;28;20028;-80
2021/09/13 08:42:28;;;;;;;12.05;9.18;;;;;;;25.50;31.00;99385.91;5071776;28;20083;-81
2021/09/13 08:44:58;;;;;;;14.65;9.45;;;;;;;25.98;31.21;99441.03;5071896;28;20060;-81
2021/09/13 08:47:35;;;;;;;13.93;8.25;;;;;;;26.02;30.41;99425.91;5069021;28;20051;-81
2021/09/13 08:50:08;;;;;;;14.00;10.80;;;;;;;25.94;30.06;99375.88;5065474;28;20029;-81
2021/09/13 08:52:35;;;;;;;13.68;9.45;;;;;;;26.44;29.99;99430.72;5071242;28;20485;-81
2021/09/13 08:55:01;;;;;;;14.60;10.30;;;;;;;26.29;29.69;99382.09;5072349;28;20028;-81
2021/09/13 08:57:27;;;;;;;11.02;9.93;;;;;;;26.68;29.69;99411.78;5071229;28;20028;-81
2021/09/13 08:59:53;;;;;;;11.07;9.20;;;;;;;26.96;29.32;99433.72;5071922;28;20060;-82
2021/09/13 09:02:19;;;;;;;15.38;11.13;;;;;;;26.92;29.15;99393.66;5072220;28;20074;-82
2021/09/13 09:04:46;;;;;;;16.35;10.23;;;;;;;27.25;29.21;99420.94;5070742;28;20060;-81
2021/09/13 09:07:15;;;;;;;11.23;9.07;;;;;;;27.40;29.03;99428.88;5072415;28;20024;-81
2021/09/13 09:09:40;;;;;;;14.73;10.27;;;;;;;27.15;28.68;99366.84;5070676;28;20040;-80
2021/09/13 09:12:13;;;;;;;12.90;9.70;;;;;;;27.58;28.81;99419.16;5070856;28;20032;-82
2021/09/13 09:14:48;;;;;;;13.43;9.93;;;;;;;27.41;28.68;99383.56;5072269;28;20036;-81
2021/09/13 09:17:23;;;;;;;15.52;9.48;;;;;;;27.72;28.60;99420.06;5071106;28;20171;-81
2021/09/13 09:20:05;;;;;;;14.55;8.73;;;;;;;27.68;28.42;99394.63;5071948;28;20035;-80
2021/09/13 09:22:34;;;;;;;13.57;9.50;;;;;;;27.79;28.63;99409.66;5071184;28;20048;-80
2021/09/13 09:25:03;;;;;;;18.67;11.50;;;;;;;27.90;28.51;99395.94;5070945;28;20405;-76
2021/09/13 09:27:28;;;;;;;14.20;10.30;;;;;;;27.98;28.45;99415.06;5071911;28;20405;-75
2021/09/13 09:29:54;;;;;;;14.20;9.50;;;;;;;27.76;28.31;99366.84;5071202;28;20033;-74
2021/09/13 09:32:22;;;;;;;11.77;9.00;;;;;;;28.35;28.36;99418.84;5069355;28;20028;-75
2021/09/13 09:34:48;;;;;;;13.07;9.38;;;;;;;28.52;27.92;99416.38;5071882;28;20035;-76
2021/09/13 09:37:15;;;;;;;13.13;9.95;;;;;;;28.59;27.63;99400.47;5070891;28;20043;-75
2021/09/13 09:39:42;;;;;;;15.48;10.82;;;;;;;28.42;27.59;99340.50;5070459;28;20515;-75
2021/09/13 09:42:10;;;;;;;12.80;9.73;;;;;;;28.92;27.18;99422.97;5070767;28;20154;-76
2021/09/13 09:44:36;;;;;;;11.30;9.48;;;;;;;29.00;26.79;99397.84;5071672;28;20048;-74
2021/09/13 09:47:06;;;;;;;14.05;9.00;;;;;;;29.18;26.74;99404.25;5071487;28;20032;-75
2021/09/13 09:49:51;;;;;;;18.63;16.25;;;;;;;29.25;26.81;99404.66;5070825;28;20032;-75
2021/09/13 09:52:45;;;;;;;15.02;12.68;;;;;;;29.33;26.39;99384.91;5071313;28;20414;-81
2021/09/13 09:55:19;;;;;;;13.38;9.65;;;;;;;29.62;26.48;99400.88;5075348;28;20044;-80
2021/09/13 09:58:04;;;;;;;15.43;12.35;;;;;;;29.85;26.31;99403.63;5091005;28;20036;-80
2021/09/13 10:00:30;;;;;;;12.27;10.32;;;;;;;29.76;26.53;99372.84;5090350;28;20110;-80
2021/09/13 10:02:56;;;;;;;15.15;9.77;;;;;;;29.93;25.57;99402.91;5073325;28;20460;-81
2021/09/13 10:05:28;;;;;;;11.18;9.43;;;;;;;29.90;25.51;99400.78;5069869;28;20040;-81
2021/09/13 10:07:54;;;;;;;14.98;11.57;;;;;;;29.84;25.57;99369.38;5070714;28;20112;-81
2021/09/13 10:10:22;;;;;;;13.48;9.38;;;;;;;30.04;25.72;99391.47;5069461;28;20490;-80
2021/09/13 10:12:48;;;;;;;13.68;10.98;;;;;;;30.08;25.20;99390.84;5071092;28;20036;-81
2021/09/13 10:15:15;;;;;;;20.58;11.63;;;;;;;29.54;26.01;99319.19;5071083;28;20460;-80
2021/09/13 10:17:40;;;;;;;15.35;11.85;;;;;;;30.09;25.50;99389.75;5063230;28;20051;-81
2021/09/13 10:20:08;;;;;;;13.30;9.10;;;;;;;30.15;25.27;99383.06;5070830;28;20505;-80
2021/09/13 10:22:37;;;;;;;16.10;12.68;;;;;;;30.28;25.35;99365.81;5071120;28;20029;-80
2021/09/13 10:25:05;;;;;;;13.98;11.68;;;;;;;30.45;25.14;99373.28;5066384;28;20020;-72
2021/09/13 10:27:36;;;;;;;15.38;11.30;;;;;;;30.81;24.92;99373.97;5070038;28;20044;-76
2021/09/13 10:30:09;;;;;;;20.80;18.23;;;;;;;30.95;24.42;99362.94;5070689;28;20024;-76
2021/09/13 10:32:34;;;;;;;14.85;12.13;;;;;;;31.10;24.25;99357.03;5075860;28;20532;-74
2021/09/13 10:35:00;;;;;;;14.73;10.43;;;;;;;31.39;24.18;99375.59;5072498;28;20108;-74
2021/09/13 10:37:38;;;;;;;14.13;9.68;;;;;;;31.40;23.35;99369.00;5070636;28;20025;-76
2021/09/13 10:40:08;;;;;;;14.10;12.13;;;;;;;31.28;24.13;99374.28;5077906;28;20463;-77
2021/09/13 10:42:40;;;;;;;14.95;10.38;;;;;;;30.88;24.34;99368.06;5079355;28;20493;-75
2021/09/13 10:45:06;;;;;;;11.07;8.98;;;;;;;30.53;24.27;99364.38;5080007;28;20013;-73
2021/09/13 10:47:32;;;;;;;17.42;15.43;;;;;;;30.62;24.72;99365.25;5070520;28;20038;-73
2021/09/13 10:50:17;;;;;;;15.95;11.77;;;;;;;30.75;24.37;99369.78;5073437;28;20025;-76
2021/09/13 10:52:43;;;;;;;13.70;9.95;;;;;;;30.67;24.21;99316.84;5069234;28;20654;-75
2021/09/13 10:55:08;;;;;;;10.70;9.60;;;;;;;30.76;24.22;99354.22;5068790;28;20045;-80
2021/09/13 10:58:10;;;;;;;15.73;11.18;;;;;;;30.70;23.33;99348.13;5087825;28;20074;-79
2021/09/13 11:00:44;;;;;;;;;;;;;;;30.43;24.31;99353.72;5074592;28;20028;-79
2021/09/13 11:03:22;;;;;;;13.70;11.85;;;;;;;30.59;23.53;99354.97;5082717;28;20410;-79
2021/09/13 11:06:16;;;;;;;19.63;13.70;;;;;;;30.75;23.80;99342.53;5070809;28;20024;-80
2021/09/13 11:08:55;;;;;;;18.02;11.73;;;;;;;30.92;23.60;99342.56;5074935;28;20098;-81
2021/09/13 11:11:32;;;;;;;13.43;8.18;;;;;;;31.12;22.73;99319.34;5079969;28;20028;-77
2021/09/13 11:14:02;;;;;;;12.75;9.00;;;;;;;31.46;22.74;99342.34;5089176;28;20036;-79
2021/09/13 11:16:29;;;;;;;10.40;9.00;;;;;;;31.71;22.58;99329.84;5072477;28;20045;-78
2021/09/13 11:18:56;;;;;;;11.80;10.60;;;;;;;31.49;22.51;99268.84;5073860;28;20051;-79
2021/09/13 11:21:28;;;;;;;9.82;8.35;;;;;;;31.87;22.70;99323.56;5072566;28;20116;-79
2021/09/13 11:24:29;;;;;;;11.55;10.40;;;;;;;31.85;22.81;99336.72;5072356;28;20025;-72
2021/09/13 11:26:57;;;;;;;11.80;10.50;;;;;;;31.64;23.15;99324.84;5071501;28;20028;-73